sensor_id;sensor_type;location;lat;lon;timestamp;P1;durP1;ratioP1;P2;durP2;ratioP2
67053;SDS011;53960;51.826;5.850;2023-09-07T00:00:18;7.97;;;3.57;;
67053;SDS011;53960;51.826;5.850;2023-09-07T00:02:43;9.13;;;3.60;;
67053;SDS011;53960;51.826;5.850;2023-09-07T00:05:09;9.93;;;3.90;;
67053;SDS011;53960;51.826;5.850;2023-09-07T00:07:35;8.87;;;4.00;;
67053;SDS011;53960;51.826;5.850;2023-09-07T00:10:00;10.07;;;4.00;;
67053;SDS011;53960;51.826;5.850;2023-09-07T00:12:28;8.65;;;3.67;;
67053;SDS011;53960;51.826;5.850;2023-09-07T00:14:53;9.63;;;3.80;;
67053;SDS011;53960;51.826;5.850;2023-09-07T00:17:19;9.80;;;3.90;;
67053;SDS011;53960;51.826;5.850;2023-09-07T00:19:45;8.50;;;3.88;;
67053;SDS011;53960;51.826;5.850;2023-09-07T00:22:13;8.60;;;3.80;;
67053;SDS011;53960;51.826;5.850;2023-09-07T00:24:39;10.50;;;4.00;;
67053;SDS011;53960;51.826;5.850;2023-09-07T00:27:04;8.67;;;3.90;;
67053;SDS011;53960;51.826;5.850;2023-09-07T00:29:31;8.90;;;3.90;;
67053;SDS011;53960;51.826;5.850;2023-09-07T00:31:56;8.73;;;4.00;;
67053;SDS011;53960;51.826;5.850;2023-09-07T00:34:22;8.60;;;3.87;;
67053;SDS011;53960;51.826;5.850;2023-09-07T00:36:47;9.57;;;3.77;;
67053;SDS011;53960;51.826;5.850;2023-09-07T00:39:12;9.27;;;4.33;;
67053;SDS011;53960;51.826;5.850;2023-09-07T00:41:38;8.40;;;3.53;;
67053;SDS011;53960;51.826;5.850;2023-09-07T00:44:03;9.40;;;3.63;;
67053;SDS011;53960;51.826;5.850;2023-09-07T00:46:29;8.30;;;4.00;;
67053;SDS011;53960;51.826;5.850;2023-09-07T00:48:54;9.00;;;4.05;;
67053;SDS011;53960;51.826;5.850;2023-09-07T00:51:21;10.27;;;4.20;;
67053;SDS011;53960;51.826;5.850;2023-09-07T00:53:46;11.88;;;4.70;;
67053;SDS011;53960;51.826;5.850;2023-09-07T00:56:11;10.00;;;4.17;;
67053;SDS011;53960;51.826;5.850;2023-09-07T00:58:37;10.63;;;4.23;;
67053;SDS011;53960;51.826;5.850;2023-09-07T01:01:03;9.70;;;4.20;;
67053;SDS011;53960;51.826;5.850;2023-09-07T01:03:28;9.90;;;3.97;;
67053;SDS011;53960;51.826;5.850;2023-09-07T01:08:39;8.40;;;3.95;;
67053;SDS011;53960;51.826;5.850;2023-09-07T01:11:14;10.20;;;4.22;;
67053;SDS011;53960;51.826;5.850;2023-09-07T01:13:45;9.57;;;4.20;;
67053;SDS011;53960;51.826;5.850;2023-09-07T01:16:10;9.03;;;4.20;;
67053;SDS011;53960;51.826;5.850;2023-09-07T01:18:38;8.63;;;3.97;;
67053;SDS011;53960;51.826;5.850;2023-09-07T01:21:07;9.48;;;4.20;;
67053;SDS011;53960;51.826;5.850;2023-09-07T01:23:36;9.33;;;3.97;;
67053;SDS011;53960;51.826;5.850;2023-09-07T01:26:11;9.82;;;4.25;;
67053;SDS011;53960;51.826;5.850;2023-09-07T01:28:36;9.95;;;4.20;;
67053;SDS011;53960;51.826;5.850;2023-09-07T01:31:03;11.03;;;4.17;;
67053;SDS011;53960;51.826;5.850;2023-09-07T01:33:28;10.60;;;3.80;;
67053;SDS011;53960;51.826;5.850;2023-09-07T01:35:55;9.68;;;4.20;;
67053;SDS011;53960;51.826;5.850;2023-09-07T01:38:21;9.37;;;4.00;;
67053;SDS011;53960;51.826;5.850;2023-09-07T01:40:46;9.68;;;3.78;;
67053;SDS011;53960;51.826;5.850;2023-09-07T01:43:12;9.67;;;3.70;;
67053;SDS011;53960;51.826;5.850;2023-09-07T01:45:37;10.97;;;3.90;;
67053;SDS011;53960;51.826;5.850;2023-09-07T01:48:03;9.43;;;3.67;;
67053;SDS011;53960;51.826;5.850;2023-09-07T01:50:30;9.13;;;4.20;;
67053;SDS011;53960;51.826;5.850;2023-09-07T01:52:56;8.75;;;4.00;;
67053;SDS011;53960;51.826;5.850;2023-09-07T01:55:21;8.50;;;3.90;;
67053;SDS011;53960;51.826;5.850;2023-09-07T01:57:47;8.90;;;3.77;;
67053;SDS011;53960;51.826;5.850;2023-09-07T02:00:12;8.50;;;3.77;;
67053;SDS011;53960;51.826;5.850;2023-09-07T02:02:38;9.68;;;3.90;;
67053;SDS011;53960;51.826;5.850;2023-09-07T02:05:03;10.77;;;3.67;;
67053;SDS011;53960;51.826;5.850;2023-09-07T02:07:29;8.80;;;3.87;;
67053;SDS011;53960;51.826;5.850;2023-09-07T02:09:54;8.07;;;3.60;;
67053;SDS011;53960;51.826;5.850;2023-09-07T02:12:20;9.03;;;3.80;;
67053;SDS011;53960;51.826;5.850;2023-09-07T02:14:45;8.97;;;3.80;;
67053;SDS011;53960;51.826;5.850;2023-09-07T02:17:11;9.90;;;4.07;;
67053;SDS011;53960;51.826;5.850;2023-09-07T02:19:39;7.93;;;3.50;;
67053;SDS011;53960;51.826;5.850;2023-09-07T02:22:04;8.50;;;3.90;;
67053;SDS011;53960;51.826;5.850;2023-09-07T02:24:29;9.33;;;4.13;;
67053;SDS011;53960;51.826;5.850;2023-09-07T02:26:55;8.60;;;3.70;;
67053;SDS011;53960;51.826;5.850;2023-09-07T02:29:20;8.53;;;3.80;;
67053;SDS011;53960;51.826;5.850;2023-09-07T02:31:45;9.67;;;4.50;;
67053;SDS011;53960;51.826;5.850;2023-09-07T02:34:11;8.80;;;3.60;;
67053;SDS011;53960;51.826;5.850;2023-09-07T02:36:36;9.45;;;3.65;;
67053;SDS011;53960;51.826;5.850;2023-09-07T02:39:01;8.87;;;4.00;;
67053;SDS011;53960;51.826;5.850;2023-09-07T02:41:27;9.47;;;3.47;;
67053;SDS011;53960;51.826;5.850;2023-09-07T02:43:52;9.23;;;3.30;;
67053;SDS011;53960;51.826;5.850;2023-09-07T02:46:17;8.70;;;3.70;;
67053;SDS011;53960;51.826;5.850;2023-09-07T02:48:43;9.43;;;3.83;;
67053;SDS011;53960;51.826;5.850;2023-09-07T02:51:08;7.67;;;3.60;;
67053;SDS011;53960;51.826;5.850;2023-09-07T02:53:33;9.48;;;3.50;;
67053;SDS011;53960;51.826;5.850;2023-09-07T02:55:59;8.60;;;4.20;;
67053;SDS011;53960;51.826;5.850;2023-09-07T02:58:27;10.93;;;3.95;;
67053;SDS011;53960;51.826;5.850;2023-09-07T03:00:52;9.37;;;4.17;;
67053;SDS011;53960;51.826;5.850;2023-09-07T03:03:17;8.93;;;4.00;;
67053;SDS011;53960;51.826;5.850;2023-09-07T03:05:43;9.27;;;3.70;;
67053;SDS011;53960;51.826;5.850;2023-09-07T03:08:09;10.30;;;3.90;;
67053;SDS011;53960;51.826;5.850;2023-09-07T03:10:35;8.70;;;3.60;;
67053;SDS011;53960;51.826;5.850;2023-09-07T03:13:01;9.07;;;4.45;;
67053;SDS011;53960;51.826;5.850;2023-09-07T03:15:26;8.57;;;3.90;;
67053;SDS011;53960;51.826;5.850;2023-09-07T03:17:52;8.75;;;3.95;;
67053;SDS011;53960;51.826;5.850;2023-09-07T03:20:17;8.70;;;4.23;;
67053;SDS011;53960;51.826;5.850;2023-09-07T03:22:44;9.68;;;4.32;;
67053;SDS011;53960;51.826;5.850;2023-09-07T03:25:10;10.30;;;4.17;;
67053;SDS011;53960;51.826;5.850;2023-09-07T03:27:37;8.17;;;4.00;;
67053;SDS011;53960;51.826;5.850;2023-09-07T03:30:04;10.60;;;4.60;;
67053;SDS011;53960;51.826;5.850;2023-09-07T03:32:30;8.77;;;4.30;;
67053;SDS011;53960;51.826;5.850;2023-09-07T03:35:02;9.65;;;4.15;;
67053;SDS011;53960;51.826;5.850;2023-09-07T03:37:34;9.93;;;4.63;;
67053;SDS011;53960;51.826;5.850;2023-09-07T03:40:00;9.30;;;4.30;;
67053;SDS011;53960;51.826;5.850;2023-09-07T03:42:26;10.00;;;4.70;;
67053;SDS011;53960;51.826;5.850;2023-09-07T03:44:51;10.60;;;4.78;;
67053;SDS011;53960;51.826;5.850;2023-09-07T03:47:17;10.67;;;5.00;;
67053;SDS011;53960;51.826;5.850;2023-09-07T03:49:42;9.73;;;4.50;;
67053;SDS011;53960;51.826;5.850;2023-09-07T03:52:07;10.50;;;4.83;;
67053;SDS011;53960;51.826;5.850;2023-09-07T03:54:34;10.02;;;4.97;;
67053;SDS011;53960;51.826;5.850;2023-09-07T03:57:00;10.83;;;4.83;;
67053;SDS011;53960;51.826;5.850;2023-09-07T03:59:27;10.73;;;4.67;;
67053;SDS011;53960;51.826;5.850;2023-09-07T04:01:52;10.93;;;5.18;;
67053;SDS011;53960;51.826;5.850;2023-09-07T04:04:19;9.95;;;5.18;;
67053;SDS011;53960;51.826;5.850;2023-09-07T04:06:46;10.03;;;4.80;;
67053;SDS011;53960;51.826;5.850;2023-09-07T04:09:12;11.30;;;5.60;;
67053;SDS011;53960;51.826;5.850;2023-09-07T04:11:38;10.17;;;5.13;;
67053;SDS011;53960;51.826;5.850;2023-09-07T04:14:03;11.33;;;4.87;;
67053;SDS011;53960;51.826;5.850;2023-09-07T04:16:28;9.40;;;4.65;;
67053;SDS011;53960;51.826;5.850;2023-09-07T04:18:54;9.17;;;4.73;;
67053;SDS011;53960;51.826;5.850;2023-09-07T04:21:19;10.00;;;4.73;;
67053;SDS011;53960;51.826;5.850;2023-09-07T04:23:45;9.17;;;4.80;;
67053;SDS011;53960;51.826;5.850;2023-09-07T04:26:11;9.43;;;4.80;;
67053;SDS011;53960;51.826;5.850;2023-09-07T04:28:37;10.10;;;4.57;;
67053;SDS011;53960;51.826;5.850;2023-09-07T04:31:03;9.20;;;4.20;;
67053;SDS011;53960;51.826;5.850;2023-09-07T04:33:30;10.15;;;4.65;;
67053;SDS011;53960;51.826;5.850;2023-09-07T04:35:56;11.00;;;4.88;;
67053;SDS011;53960;51.826;5.850;2023-09-07T04:38:21;9.63;;;4.80;;
67053;SDS011;53960;51.826;5.850;2023-09-07T04:40:47;8.53;;;4.67;;
67053;SDS011;53960;51.826;5.850;2023-09-07T04:43:12;9.75;;;4.95;;
67053;SDS011;53960;51.826;5.850;2023-09-07T04:45:45;10.10;;;4.63;;
67053;SDS011;53960;51.826;5.850;2023-09-07T04:48:11;9.55;;;4.65;;
67053;SDS011;53960;51.826;5.850;2023-09-07T04:50:36;10.30;;;4.67;;
67053;SDS011;53960;51.826;5.850;2023-09-07T04:53:02;9.57;;;4.53;;
67053;SDS011;53960;51.826;5.850;2023-09-07T04:55:28;12.52;;;4.80;;
67053;SDS011;53960;51.826;5.850;2023-09-07T04:57:53;10.67;;;4.83;;
67053;SDS011;53960;51.826;5.850;2023-09-07T05:00:19;10.50;;;4.47;;
67053;SDS011;53960;51.826;5.850;2023-09-07T05:02:44;9.90;;;4.93;;
67053;SDS011;53960;51.826;5.850;2023-09-07T05:05:11;12.48;;;4.85;;
67053;SDS011;53960;51.826;5.850;2023-09-07T05:07:36;9.70;;;4.40;;
67053;SDS011;53960;51.826;5.850;2023-09-07T05:10:02;10.55;;;4.50;;
67053;SDS011;53960;51.826;5.850;2023-09-07T05:12:28;10.27;;;4.83;;
67053;SDS011;53960;51.826;5.850;2023-09-07T05:14:53;10.77;;;4.53;;
67053;SDS011;53960;51.826;5.850;2023-09-07T05:17:18;9.63;;;4.67;;
67053;SDS011;53960;51.826;5.850;2023-09-07T05:19:44;11.63;;;5.30;;
67053;SDS011;53960;51.826;5.850;2023-09-07T05:22:09;9.77;;;4.77;;
67053;SDS011;53960;51.826;5.850;2023-09-07T05:24:37;10.27;;;4.93;;
67053;SDS011;53960;51.826;5.850;2023-09-07T05:27:03;11.07;;;5.00;;
67053;SDS011;53960;51.826;5.850;2023-09-07T05:29:28;10.83;;;4.70;;
67053;SDS011;53960;51.826;5.850;2023-09-07T05:31:54;11.17;;;5.30;;
67053;SDS011;53960;51.826;5.850;2023-09-07T05:34:19;10.07;;;5.00;;
67053;SDS011;53960;51.826;5.850;2023-09-07T05:36:44;9.77;;;4.93;;
67053;SDS011;53960;51.826;5.850;2023-09-07T05:39:10;11.93;;;4.90;;
67053;SDS011;53960;51.826;5.850;2023-09-07T05:41:35;11.27;;;5.10;;
67053;SDS011;53960;51.826;5.850;2023-09-07T05:44:00;12.10;;;5.53;;
67053;SDS011;53960;51.826;5.850;2023-09-07T05:46:26;10.03;;;5.00;;
67053;SDS011;53960;51.826;5.850;2023-09-07T05:48:51;11.83;;;5.30;;
67053;SDS011;53960;51.826;5.850;2023-09-07T05:51:16;9.97;;;5.20;;
67053;SDS011;53960;51.826;5.850;2023-09-07T05:53:42;9.63;;;4.85;;
67053;SDS011;53960;51.826;5.850;2023-09-07T05:56:07;11.27;;;5.40;;
67053;SDS011;53960;51.826;5.850;2023-09-07T05:58:32;10.83;;;5.13;;
67053;SDS011;53960;51.826;5.850;2023-09-07T06:00:59;13.27;;;5.70;;
67053;SDS011;53960;51.826;5.850;2023-09-07T06:03:24;11.05;;;5.13;;
67053;SDS011;53960;51.826;5.850;2023-09-07T06:05:50;11.27;;;5.30;;
67053;SDS011;53960;51.826;5.850;2023-09-07T06:08:15;13.23;;;6.38;;
67053;SDS011;53960;51.826;5.850;2023-09-07T06:10:41;11.90;;;5.77;;
67053;SDS011;53960;51.826;5.850;2023-09-07T06:13:06;11.53;;;6.17;;
67053;SDS011;53960;51.826;5.850;2023-09-07T06:15:31;12.93;;;6.40;;
67053;SDS011;53960;51.826;5.850;2023-09-07T06:17:57;11.05;;;5.97;;
67053;SDS011;53960;51.826;5.850;2023-09-07T06:20:22;12.20;;;5.50;;
67053;SDS011;53960;51.826;5.850;2023-09-07T06:22:48;13.27;;;6.03;;
67053;SDS011;53960;51.826;5.850;2023-09-07T06:25:14;12.63;;;6.13;;
67053;SDS011;53960;51.826;5.850;2023-09-07T06:27:39;11.97;;;5.47;;
67053;SDS011;53960;51.826;5.850;2023-09-07T06:30:05;10.43;;;5.73;;
67053;SDS011;53960;51.826;5.850;2023-09-07T06:32:31;12.15;;;5.65;;
67053;SDS011;53960;51.826;5.850;2023-09-07T06:34:57;11.93;;;5.47;;
67053;SDS011;53960;51.826;5.850;2023-09-07T06:37:23;10.70;;;5.30;;
67053;SDS011;53960;51.826;5.850;2023-09-07T06:39:49;13.60;;;5.80;;
67053;SDS011;53960;51.826;5.850;2023-09-07T06:42:15;12.48;;;5.45;;
67053;SDS011;53960;51.826;5.850;2023-09-07T06:44:40;12.07;;;5.47;;
67053;SDS011;53960;51.826;5.850;2023-09-07T06:47:06;10.00;;;5.15;;
67053;SDS011;53960;51.826;5.850;2023-09-07T06:49:32;10.57;;;5.10;;
67053;SDS011;53960;51.826;5.850;2023-09-07T06:51:57;10.27;;;5.17;;
67053;SDS011;53960;51.826;5.850;2023-09-07T06:54:23;10.73;;;4.82;;
67053;SDS011;53960;51.826;5.850;2023-09-07T06:56:48;9.77;;;4.97;;
67053;SDS011;53960;51.826;5.850;2023-09-07T06:59:13;10.97;;;5.43;;
67053;SDS011;53960;51.826;5.850;2023-09-07T07:01:39;10.68;;;4.50;;
67053;SDS011;53960;51.826;5.850;2023-09-07T07:04:05;10.37;;;4.60;;
67053;SDS011;53960;51.826;5.850;2023-09-07T07:06:31;11.98;;;4.82;;
67053;SDS011;53960;51.826;5.850;2023-09-07T07:08:56;12.10;;;4.97;;
67053;SDS011;53960;51.826;5.850;2023-09-07T07:11:22;10.43;;;4.90;;
67053;SDS011;53960;51.826;5.850;2023-09-07T07:13:47;9.90;;;4.93;;
67053;SDS011;53960;51.826;5.850;2023-09-07T07:16:12;10.37;;;4.27;;
67053;SDS011;53960;51.826;5.850;2023-09-07T07:18:38;9.50;;;4.32;;
67053;SDS011;53960;51.826;5.850;2023-09-07T07:21:04;10.55;;;4.22;;
67053;SDS011;53960;51.826;5.850;2023-09-07T07:23:30;10.88;;;4.53;;
67053;SDS011;53960;51.826;5.850;2023-09-07T07:25:55;11.00;;;4.47;;
67053;SDS011;53960;51.826;5.850;2023-09-07T07:28:21;8.77;;;4.30;;
67053;SDS011;53960;51.826;5.850;2023-09-07T07:30:46;10.20;;;4.10;;
67053;SDS011;53960;51.826;5.850;2023-09-07T07:33:13;9.48;;;4.53;;
67053;SDS011;53960;51.826;5.850;2023-09-07T07:35:38;10.97;;;3.83;;
67053;SDS011;53960;51.826;5.850;2023-09-07T07:38:04;9.27;;;4.70;;
67053;SDS011;53960;51.826;5.850;2023-09-07T07:40:30;9.37;;;4.53;;
67053;SDS011;53960;51.826;5.850;2023-09-07T07:42:55;10.65;;;4.30;;
67053;SDS011;53960;51.826;5.850;2023-09-07T07:45:21;11.63;;;4.00;;
67053;SDS011;53960;51.826;5.850;2023-09-07T07:47:47;10.25;;;4.47;;
67053;SDS011;53960;51.826;5.850;2023-09-07T07:50:14;9.43;;;3.95;;
67053;SDS011;53960;51.826;5.850;2023-09-07T07:52:39;9.43;;;4.27;;
67053;SDS011;53960;51.826;5.850;2023-09-07T07:55:05;9.18;;;4.13;;
67053;SDS011;53960;51.826;5.850;2023-09-07T07:57:31;9.32;;;3.72;;
67053;SDS011;53960;51.826;5.850;2023-09-07T07:59:57;9.83;;;3.67;;
67053;SDS011;53960;51.826;5.850;2023-09-07T08:02:22;9.85;;;3.60;;
67053;SDS011;53960;51.826;5.850;2023-09-07T08:04:48;9.63;;;4.00;;
67053;SDS011;53960;51.826;5.850;2023-09-07T08:07:13;9.03;;;3.70;;
67053;SDS011;53960;51.826;5.850;2023-09-07T08:09:38;8.90;;;3.73;;
67053;SDS011;53960;51.826;5.850;2023-09-07T08:12:04;9.55;;;3.75;;
67053;SDS011;53960;51.826;5.850;2023-09-07T08:14:30;10.37;;;3.67;;
67053;SDS011;53960;51.826;5.850;2023-09-07T08:16:56;9.52;;;3.67;;
67053;SDS011;53960;51.826;5.850;2023-09-07T08:19:22;9.88;;;3.95;;
67053;SDS011;53960;51.826;5.850;2023-09-07T08:21:48;9.87;;;3.67;;
67053;SDS011;53960;51.826;5.850;2023-09-07T08:24:13;10.20;;;3.77;;
67053;SDS011;53960;51.826;5.850;2023-09-07T08:26:39;9.13;;;3.80;;
67053;SDS011;53960;51.826;5.850;2023-09-07T08:29:05;7.90;;;3.30;;
67053;SDS011;53960;51.826;5.850;2023-09-07T08:31:32;7.78;;;3.40;;
67053;SDS011;53960;51.826;5.850;2023-09-07T08:33:59;9.23;;;3.22;;
67053;SDS011;53960;51.826;5.850;2023-09-07T08:36:28;8.77;;;3.20;;
67053;SDS011;53960;51.826;5.850;2023-09-07T08:38:57;9.27;;;3.45;;
67053;SDS011;53960;51.826;5.850;2023-09-07T08:41:24;8.43;;;3.67;;
67053;SDS011;53960;51.826;5.850;2023-09-07T08:43:52;8.02;;;3.25;;
67053;SDS011;53960;51.826;5.850;2023-09-07T08:46:18;8.52;;;3.50;;
67053;SDS011;53960;51.826;5.850;2023-09-07T08:48:47;9.53;;;3.43;;
67053;SDS011;53960;51.826;5.850;2023-09-07T08:51:17;11.15;;;3.53;;
67053;SDS011;53960;51.826;5.850;2023-09-07T08:53:44;9.60;;;3.75;;
67053;SDS011;53960;51.826;5.850;2023-09-07T08:56:11;10.82;;;3.80;;
67053;SDS011;53960;51.826;5.850;2023-09-07T08:58:38;9.93;;;3.63;;
67053;SDS011;53960;51.826;5.850;2023-09-07T09:01:05;8.40;;;3.23;;
67053;SDS011;53960;51.826;5.850;2023-09-07T09:03:31;8.38;;;3.53;;
67053;SDS011;53960;51.826;5.850;2023-09-07T09:05:56;10.97;;;3.80;;
67053;SDS011;53960;51.826;5.850;2023-09-07T09:08:22;10.13;;;3.38;;
67053;SDS011;53960;51.826;5.850;2023-09-07T09:10:58;9.13;;;3.42;;
67053;SDS011;53960;51.826;5.850;2023-09-07T09:13:32;11.27;;;4.27;;
67053;SDS011;53960;51.826;5.850;2023-09-07T09:16:01;8.35;;;3.33;;
67053;SDS011;53960;51.826;5.850;2023-09-07T09:18:26;8.85;;;3.83;;
67053;SDS011;53960;51.826;5.850;2023-09-07T09:20:54;9.82;;;4.00;;
67053;SDS011;53960;51.826;5.850;2023-09-07T09:23:20;9.15;;;3.88;;
67053;SDS011;53960;51.826;5.850;2023-09-07T09:25:47;9.10;;;3.70;;
67053;SDS011;53960;51.826;5.850;2023-09-07T09:28:13;8.52;;;3.83;;
67053;SDS011;53960;51.826;5.850;2023-09-07T09:30:38;7.97;;;3.67;;
67053;SDS011;53960;51.826;5.850;2023-09-07T09:33:05;9.80;;;4.03;;
67053;SDS011;53960;51.826;5.850;2023-09-07T09:35:31;8.30;;;3.78;;
67053;SDS011;53960;51.826;5.850;2023-09-07T09:38:00;8.15;;;3.60;;
67053;SDS011;53960;51.826;5.850;2023-09-07T09:40:29;9.10;;;3.80;;
67053;SDS011;53960;51.826;5.850;2023-09-07T09:42:59;11.02;;;4.20;;
67053;SDS011;53960;51.826;5.850;2023-09-07T09:45:26;8.80;;;3.80;;
67053;SDS011;53960;51.826;5.850;2023-09-07T09:47:52;8.55;;;3.80;;
67053;SDS011;53960;51.826;5.850;2023-09-07T09:50:21;10.57;;;4.20;;
67053;SDS011;53960;51.826;5.850;2023-09-07T09:52:47;8.45;;;3.60;;
67053;SDS011;53960;51.826;5.850;2023-09-07T09:55:13;8.30;;;3.78;;
67053;SDS011;53960;51.826;5.850;2023-09-07T09:57:40;9.10;;;3.83;;
67053;SDS011;53960;51.826;5.850;2023-09-07T10:00:06;8.52;;;4.05;;
67053;SDS011;53960;51.826;5.850;2023-09-07T10:02:42;8.88;;;3.95;;
67053;SDS011;53960;51.826;5.850;2023-09-07T10:05:10;9.75;;;3.90;;
67053;SDS011;53960;51.826;5.850;2023-09-07T10:07:44;8.83;;;3.90;;
67053;SDS011;53960;51.826;5.850;2023-09-07T10:10:13;8.10;;;3.72;;
67053;SDS011;53960;51.826;5.850;2023-09-07T10:13:13;8.73;;;4.00;;
67053;SDS011;53960;51.826;5.850;2023-09-07T10:15:31;10.40;;;4.10;;
67053;SDS011;53960;51.826;5.850;2023-09-07T10:20:34;9.97;;;3.93;;
67053;SDS011;53960;51.826;5.850;2023-09-07T10:23:11;8.82;;;3.55;;
67053;SDS011;53960;51.826;5.850;2023-09-07T10:25:37;11.40;;;4.73;;
67053;SDS011;53960;51.826;5.850;2023-09-07T10:28:02;10.98;;;4.38;;
67053;SDS011;53960;51.826;5.850;2023-09-07T10:30:29;10.33;;;3.90;;
67053;SDS011;53960;51.826;5.850;2023-09-07T10:32:57;8.63;;;4.50;;
67053;SDS011;53960;51.826;5.850;2023-09-07T10:35:23;8.60;;;3.77;;
67053;SDS011;53960;51.826;5.850;2023-09-07T10:37:50;9.65;;;3.95;;
67053;SDS011;53960;51.826;5.850;2023-09-07T10:40:20;9.32;;;4.00;;
67053;SDS011;53960;51.826;5.850;2023-09-07T10:42:47;9.85;;;3.90;;
67053;SDS011;53960;51.826;5.850;2023-09-07T10:45:13;11.13;;;4.18;;
67053;SDS011;53960;51.826;5.850;2023-09-07T10:47:42;9.43;;;4.07;;
67053;SDS011;53960;51.826;5.850;2023-09-07T10:50:10;9.55;;;3.65;;
67053;SDS011;53960;51.826;5.850;2023-09-07T10:52:36;8.07;;;3.28;;
67053;SDS011;53960;51.826;5.850;2023-09-07T10:55:01;9.27;;;3.50;;
67053;SDS011;53960;51.826;5.850;2023-09-07T10:57:27;8.57;;;3.87;;
67053;SDS011;53960;51.826;5.850;2023-09-07T10:59:52;9.18;;;3.53;;
67053;SDS011;53960;51.826;5.850;2023-09-07T11:02:20;8.93;;;3.33;;
67053;SDS011;53960;51.826;5.850;2023-09-07T11:04:45;8.95;;;3.63;;
67053;SDS011;53960;51.826;5.850;2023-09-07T11:07:11;7.87;;;3.47;;
67053;SDS011;53960;51.826;5.850;2023-09-07T11:09:41;9.55;;;3.60;;
67053;SDS011;53960;51.826;5.850;2023-09-07T11:12:07;9.32;;;3.60;;
67053;SDS011;53960;51.826;5.850;2023-09-07T11:14:33;8.55;;;3.70;;
67053;SDS011;53960;51.826;5.850;2023-09-07T11:17:00;8.17;;;3.63;;
67053;SDS011;53960;51.826;5.850;2023-09-07T11:19:31;11.00;;;3.60;;
67053;SDS011;53960;51.826;5.850;2023-09-07T11:21:57;10.30;;;3.38;;
67053;SDS011;53960;51.826;5.850;2023-09-07T11:24:22;8.40;;;3.40;;
67053;SDS011;53960;51.826;5.850;2023-09-07T11:26:49;10.38;;;3.85;;
67053;SDS011;53960;51.826;5.850;2023-09-07T11:29:17;11.60;;;5.20;;
67053;SDS011;53960;51.826;5.850;2023-09-07T11:31:44;11.23;;;4.32;;
67053;SDS011;53960;51.826;5.850;2023-09-07T11:34:13;9.43;;;4.43;;
67053;SDS011;53960;51.826;5.850;2023-09-07T11:36:40;9.18;;;4.22;;
67053;SDS011;53960;51.826;5.850;2023-09-07T11:39:06;10.07;;;3.67;;
67053;SDS011;53960;51.826;5.850;2023-09-07T11:41:37;7.95;;;3.65;;
67053;SDS011;53960;51.826;5.850;2023-09-07T11:44:04;9.65;;;4.10;;
67053;SDS011;53960;51.826;5.850;2023-09-07T11:46:29;8.50;;;3.60;;
67053;SDS011;53960;51.826;5.850;2023-09-07T11:48:55;10.88;;;3.70;;
67053;SDS011;53960;51.826;5.850;2023-09-07T11:51:21;8.17;;;3.60;;
67053;SDS011;53960;51.826;5.850;2023-09-07T11:53:46;8.93;;;3.70;;
67053;SDS011;53960;51.826;5.850;2023-09-07T11:56:12;10.07;;;3.72;;
67053;SDS011;53960;51.826;5.850;2023-09-07T11:58:37;10.13;;;4.00;;
67053;SDS011;53960;51.826;5.850;2023-09-07T12:01:02;11.57;;;3.80;;
67053;SDS011;53960;51.826;5.850;2023-09-07T12:03:29;8.93;;;3.70;;
67053;SDS011;53960;51.826;5.850;2023-09-07T12:05:55;9.30;;;3.83;;
67053;SDS011;53960;51.826;5.850;2023-09-07T12:08:20;8.35;;;3.80;;
67053;SDS011;53960;51.826;5.850;2023-09-07T12:10:46;9.93;;;4.10;;
67053;SDS011;53960;51.826;5.850;2023-09-07T12:13:11;8.82;;;3.88;;
67053;SDS011;53960;51.826;5.850;2023-09-07T12:15:37;9.30;;;3.63;;
67053;SDS011;53960;51.826;5.850;2023-09-07T12:18:03;9.67;;;4.03;;
67053;SDS011;53960;51.826;5.850;2023-09-07T12:20:28;8.20;;;3.60;;
67053;SDS011;53960;51.826;5.850;2023-09-07T12:22:54;9.37;;;3.90;;
67053;SDS011;53960;51.826;5.850;2023-09-07T12:25:19;8.60;;;4.07;;
67053;SDS011;53960;51.826;5.850;2023-09-07T12:27:45;9.85;;;4.10;;
67053;SDS011;53960;51.826;5.850;2023-09-07T12:30:12;9.27;;;3.97;;
67053;SDS011;53960;51.826;5.850;2023-09-07T12:32:39;10.30;;;4.20;;
67053;SDS011;53960;51.826;5.850;2023-09-07T12:35:05;10.73;;;3.92;;
67053;SDS011;53960;51.826;5.850;2023-09-07T12:37:33;9.13;;;3.92;;
67053;SDS011;53960;51.826;5.850;2023-09-07T12:40:00;8.07;;;4.20;;
67053;SDS011;53960;51.826;5.850;2023-09-07T12:42:26;10.10;;;3.90;;
67053;SDS011;53960;51.826;5.850;2023-09-07T12:44:51;9.63;;;4.00;;
67053;SDS011;53960;51.826;5.850;2023-09-07T12:47:16;8.80;;;3.83;;
67053;SDS011;53960;51.826;5.850;2023-09-07T12:49:42;11.47;;;4.30;;
67053;SDS011;53960;51.826;5.850;2023-09-07T12:52:07;10.77;;;4.20;;
67053;SDS011;53960;51.826;5.850;2023-09-07T12:54:36;9.18;;;3.53;;
67053;SDS011;53960;51.826;5.850;2023-09-07T12:57:01;8.97;;;4.10;;
67053;SDS011;53960;51.826;5.850;2023-09-07T12:59:28;10.95;;;4.20;;
67053;SDS011;53960;51.826;5.850;2023-09-07T13:01:53;10.30;;;4.20;;
67053;SDS011;53960;51.826;5.850;2023-09-07T13:04:21;9.15;;;4.47;;
67053;SDS011;53960;51.826;5.850;2023-09-07T13:06:46;9.43;;;4.20;;
67053;SDS011;53960;51.826;5.850;2023-09-07T13:09:11;10.23;;;4.43;;
67053;SDS011;53960;51.826;5.850;2023-09-07T13:11:37;9.80;;;4.15;;
67053;SDS011;53960;51.826;5.850;2023-09-07T13:14:04;10.17;;;4.17;;
67053;SDS011;53960;51.826;5.850;2023-09-07T13:16:29;9.88;;;4.20;;
67053;SDS011;53960;51.826;5.850;2023-09-07T13:18:57;11.98;;;4.55;;
67053;SDS011;53960;51.826;5.850;2023-09-07T13:21:23;9.40;;;4.20;;
67053;SDS011;53960;51.826;5.850;2023-09-07T13:23:48;8.57;;;4.03;;
67053;SDS011;53960;51.826;5.850;2023-09-07T13:26:14;10.40;;;4.07;;
67053;SDS011;53960;51.826;5.850;2023-09-07T13:28:40;10.30;;;4.22;;
67053;SDS011;53960;51.826;5.850;2023-09-07T13:31:06;9.23;;;4.30;;
67053;SDS011;53960;51.826;5.850;2023-09-07T13:33:31;8.77;;;3.97;;
67053;SDS011;53960;51.826;5.850;2023-09-07T13:35:57;10.73;;;4.17;;
67053;SDS011;53960;51.826;5.850;2023-09-07T13:38:22;10.63;;;4.65;;
67053;SDS011;53960;51.826;5.850;2023-09-07T13:40:48;9.73;;;5.27;;
67053;SDS011;53960;51.826;5.850;2023-09-07T13:43:13;10.87;;;4.47;;
67053;SDS011;53960;51.826;5.850;2023-09-07T13:45:39;10.15;;;4.43;;
67053;SDS011;53960;51.826;5.850;2023-09-07T13:48:04;10.53;;;4.47;;
67053;SDS011;53960;51.826;5.850;2023-09-07T13:50:30;9.70;;;4.23;;
67053;SDS011;53960;51.826;5.850;2023-09-07T13:52:55;10.68;;;4.57;;
67053;SDS011;53960;51.826;5.850;2023-09-07T13:55:21;10.80;;;4.20;;
67053;SDS011;53960;51.826;5.850;2023-09-07T13:57:47;10.23;;;4.25;;
67053;SDS011;53960;51.826;5.850;2023-09-07T14:00:13;9.97;;;4.60;;
67053;SDS011;53960;51.826;5.850;2023-09-07T14:02:38;9.63;;;4.18;;
67053;SDS011;53960;51.826;5.850;2023-09-07T14:05:04;11.90;;;4.30;;
67053;SDS011;53960;51.826;5.850;2023-09-07T14:07:30;12.15;;;4.97;;
67053;SDS011;53960;51.826;5.850;2023-09-07T14:09:55;11.43;;;4.40;;
67053;SDS011;53960;51.826;5.850;2023-09-07T14:12:20;10.33;;;4.50;;
67053;SDS011;53960;51.826;5.850;2023-09-07T14:14:46;10.90;;;4.78;;
67053;SDS011;53960;51.826;5.850;2023-09-07T14:17:12;11.18;;;4.65;;
67053;SDS011;53960;51.826;5.850;2023-09-07T14:19:38;9.33;;;4.40;;
67053;SDS011;53960;51.826;5.850;2023-09-07T14:22:03;8.80;;;4.10;;
67053;SDS011;53960;51.826;5.850;2023-09-07T14:24:28;10.73;;;4.10;;
67053;SDS011;53960;51.826;5.850;2023-09-07T14:26:54;12.35;;;4.28;;
67053;SDS011;53960;51.826;5.850;2023-09-07T14:29:19;10.13;;;3.97;;
67053;SDS011;53960;51.826;5.850;2023-09-07T14:31:45;10.13;;;4.27;;
67053;SDS011;53960;51.826;5.850;2023-09-07T14:34:11;9.25;;;4.40;;
67053;SDS011;53960;51.826;5.850;2023-09-07T14:36:37;12.95;;;4.53;;
67053;SDS011;53960;51.826;5.850;2023-09-07T14:39:02;10.37;;;4.70;;
67053;SDS011;53960;51.826;5.850;2023-09-07T14:41:29;10.07;;;4.70;;